createdAt,value
2018-10-07T00:02:35.440Z,6.55
2018-10-07T00:05:46.840Z,6.45
2018-10-07T00:08:58.903Z,6.90
2018-10-07T00:12:10.057Z,6.78
2018-10-07T00:15:21.124Z,6.55
2018-10-07T00:18:32.904Z,7.08
2018-10-07T00:21:44.844Z,9.53
2018-10-07T00:24:55.901Z,6.58
2018-10-07T00:28:07.613Z,6.55
2018-10-07T00:31:19.145Z,8.00
2018-10-07T00:34:31.286Z,7.92
2018-10-07T00:37:43.410Z,6.03
2018-10-07T00:40:55.085Z,7.67
2018-10-07T00:44:06.391Z,8.90
2018-10-07T00:47:18.246Z,5.95
2018-10-07T00:50:30.177Z,7.53
2018-10-07T00:53:42.555Z,8.65
2018-10-07T00:56:54.127Z,7.25
2018-10-07T01:00:07.102Z,9.95
2018-10-07T01:03:18.897Z,8.50
2018-10-07T01:06:29.927Z,7.03
2018-10-07T01:09:41.795Z,6.70
2018-10-07T01:12:53.536Z,8.08
2018-10-07T01:16:05.468Z,7.65
2018-10-07T01:19:16.468Z,7.65
2018-10-07T01:22:28.062Z,6.95
2018-10-07T01:25:39.327Z,9.13
2018-10-07T01:28:51.178Z,9.10
2018-10-07T01:32:02.383Z,8.38
2018-10-07T01:35:13.421Z,8.08
2018-10-07T01:38:24.735Z,7.65
2018-10-07T01:41:36.304Z,6.53
2018-10-07T01:44:47.790Z,6.10
2018-10-07T01:47:59.398Z,9.78
2018-10-07T01:51:11.089Z,7.67
2018-10-07T01:54:22.884Z,8.18
2018-10-07T01:57:34.589Z,9.95
2018-10-07T02:00:46.773Z,7.50
2018-10-07T02:03:58.635Z,6.92
2018-10-07T02:07:09.688Z,8.08
2018-10-07T02:10:21.157Z,7.50
2018-10-07T02:13:32.850Z,7.37
2018-10-07T02:16:44.963Z,8.50
2018-10-07T02:19:57.007Z,6.35
2018-10-07T02:23:08.306Z,7.67
2018-10-07T02:26:20.249Z,8.03
2018-10-07T02:29:31.465Z,9.20
2018-10-07T02:32:43.351Z,6.70
2018-10-07T02:35:54.994Z,5.95
2018-10-07T02:39:09.498Z,8.18
2018-10-07T02:42:20.452Z,7.10
2018-10-07T02:45:31.892Z,7.25
2018-10-07T02:48:43.760Z,7.87
2018-10-07T02:51:56.057Z,9.25
2018-10-07T02:55:08.872Z,8.45
2018-10-07T02:58:20.204Z,9.40
2018-10-07T03:01:32.032Z,8.15
2018-10-07T03:04:43.990Z,7.78
2018-10-07T03:07:55.428Z,8.50
2018-10-07T03:11:07.879Z,8.05
2018-10-07T03:14:19.416Z,7.83
2018-10-07T03:17:30.806Z,9.18
2018-10-07T03:20:41.809Z,7.75
2018-10-07T03:23:53.375Z,7.50
2018-10-07T03:27:04.676Z,9.30
2018-10-07T03:30:16.126Z,8.78
2018-10-07T03:33:28.015Z,7.97
2018-10-07T03:36:39.099Z,8.30
2018-10-07T03:39:50.163Z,8.55
2018-10-07T03:43:01.601Z,8.50
2018-10-07T03:46:13.826Z,9.05
2018-10-07T03:49:25.622Z,8.68
2018-10-07T03:52:37.103Z,9.08
2018-10-07T03:55:48.547Z,8.75
2018-10-07T03:59:00.179Z,9.03
2018-10-07T04:02:11.793Z,9.53
2018-10-07T04:05:23.576Z,13.08
2018-10-07T04:08:35.356Z,10.98
2018-10-07T04:11:46.748Z,9.93
2018-10-07T04:14:58.525Z,7.65
2018-10-07T04:18:10.450Z,13.25
2018-10-07T04:21:21.564Z,8.98
2018-10-07T04:24:34.518Z,10.13
2018-10-07T04:27:46.025Z,10.03
2018-10-07T04:30:57.342Z,11.75
2018-10-07T04:34:08.493Z,9.03
2018-10-07T04:37:20.002Z,10.40
2018-10-07T04:40:31.888Z,11.40
2018-10-07T04:43:43.184Z,9.60
2018-10-07T04:46:54.628Z,8.23
2018-10-07T04:50:07.204Z,8.88
2018-10-07T04:53:18.550Z,11.85
2018-10-07T04:56:30.755Z,9.18
2018-10-07T04:59:42.563Z,9.48
2018-10-07T05:02:53.662Z,9.70
2018-10-07T05:06:05.394Z,9.38
2018-10-07T05:09:17.703Z,8.88
2018-10-07T05:12:29.156Z,10.05
2018-10-07T05:15:41.394Z,8.23
2018-10-07T05:18:52.913Z,9.35
2018-10-07T05:22:04.718Z,9.30
2018-10-07T05:25:16.737Z,8.70
2018-10-07T05:28:28.705Z,10.48
2018-10-07T05:31:40.358Z,13.22
2018-10-07T05:34:51.641Z,10.35
2018-10-07T05:38:03.439Z,9.53
2018-10-07T05:41:15.033Z,10.00
2018-10-07T05:44:26.309Z,9.20
2018-10-07T05:47:38.275Z,9.88
2018-10-07T05:50:50.286Z,10.30
2018-10-07T05:54:02.083Z,10.50
2018-10-07T05:57:14.583Z,9.35
2018-10-07T06:00:28.550Z,12.20
2018-10-07T06:04:08.678Z,11.28
2018-10-07T06:07:21.495Z,11.33
2018-10-07T06:10:33.550Z,10.45
2018-10-07T06:13:45.298Z,11.38
2018-10-07T06:16:57.778Z,11.78
2018-10-07T06:20:08.934Z,11.70
2018-10-07T06:23:21.252Z,15.93
2018-10-07T06:26:33.142Z,15.68
2018-10-07T06:29:45.027Z,13.22
2018-10-07T06:32:57.303Z,14.87
2018-10-07T06:36:08.900Z,13.62
2018-10-07T06:39:20.868Z,14.47
2018-10-07T06:42:32.245Z,10.28
2018-10-07T06:45:43.660Z,11.83
2018-10-07T06:48:55.123Z,11.78
2018-10-07T06:52:07.494Z,8.58
2018-10-07T06:55:19.502Z,9.05
2018-10-07T06:58:31.790Z,10.93
2018-10-07T07:01:43.482Z,8.53
2018-10-07T07:04:55.660Z,9.60
2018-10-07T07:08:07.657Z,9.63
2018-10-07T07:11:18.793Z,14.40
2018-10-07T07:14:30.389Z,16.40
2018-10-07T07:17:41.423Z,20.68
2018-10-07T07:20:53.393Z,19.80
2018-10-07T07:24:04.927Z,23.38
2018-10-07T07:27:16.923Z,24.23
2018-10-07T07:30:28.879Z,18.48
2018-10-07T07:33:40.600Z,18.57
2018-10-07T07:36:52.973Z,23.95
2018-10-07T07:40:05.005Z,22.32
2018-10-07T07:43:16.964Z,22.80
2018-10-07T07:46:28.694Z,22.07
2018-10-07T07:49:42.395Z,23.02
2018-10-07T07:52:54.154Z,14.43
2018-10-07T07:56:05.172Z,24.23
2018-10-07T07:59:16.842Z,23.80
2018-10-07T08:02:28.561Z,21.02
2018-10-07T08:05:39.927Z,23.87
2018-10-07T08:08:51.429Z,24.75
2018-10-07T08:12:03.681Z,24.07
2018-10-07T08:15:15.622Z,22.58
2018-10-07T08:18:26.955Z,24.95
2018-10-07T08:21:38.406Z,23.38
2018-10-07T08:24:50.331Z,21.90
2018-10-07T08:28:01.599Z,19.12
2018-10-07T08:31:13.114Z,25.50
2018-10-07T08:34:24.268Z,23.47
2018-10-07T08:37:36.030Z,22.82
2018-10-07T08:40:47.626Z,22.85
2018-10-07T08:43:59.189Z,22.07
2018-10-07T08:47:10.903Z,25.10
2018-10-07T08:50:22.422Z,27.87
2018-10-07T08:53:33.461Z,25.92
2018-10-07T08:56:45.447Z,26.35
2018-10-07T08:59:56.868Z,24.15
2018-10-07T09:03:08.627Z,32.45
2018-10-07T09:06:19.998Z,29.87
2018-10-07T09:09:31.225Z,29.20
2018-10-07T09:12:42.595Z,33.67
2018-10-07T09:15:53.827Z,41.42
2018-10-07T09:19:05.015Z,30.15
2018-10-07T09:22:16.223Z,34.55
2018-10-07T09:25:27.490Z,36.25
2018-10-07T09:28:40.314Z,35.25
2018-10-07T09:31:51.954Z,35.05
2018-10-07T09:35:04.011Z,39.38
2018-10-07T09:38:15.211Z,30.15
2018-10-07T09:41:26.717Z,40.78
2018-10-07T09:44:38.127Z,26.60
2018-10-07T09:47:49.908Z,46.45
2018-10-07T09:51:01.979Z,48.83
2018-10-07T09:54:13.047Z,53.02
2018-10-07T09:57:24.370Z,38.58
2018-10-07T10:00:41.415Z,39.40
2018-10-07T10:03:54.065Z,48.23
2018-10-07T10:07:06.063Z,40.92
2018-10-07T10:10:18.456Z,44.83
2018-10-07T10:13:30.447Z,46.53
2018-10-07T10:16:53.395Z,49.98
2018-10-07T10:20:08.749Z,49.45
2018-10-07T10:23:37.460Z,43.83
2018-10-07T10:27:05.395Z,41.37
2018-10-07T10:30:40.811Z,49.38
2018-10-07T10:34:12.410Z,44.30
2018-10-07T10:37:42.358Z,40.58
2018-10-07T10:41:08.833Z,30.37
2018-10-07T10:44:57.854Z,34.58
2018-10-07T10:48:21.973Z,35.55
2018-10-07T10:54:02.650Z,38.08
2018-10-07T10:57:22.044Z,32.23
2018-10-07T11:00:48.808Z,33.25
2018-10-07T11:04:20.898Z,34.63
2018-10-07T11:08:19.167Z,30.37
2018-10-07T11:12:12.744Z,32.95
2018-10-07T11:16:37.819Z,31.00
2018-10-07T11:19:57.459Z,36.68
2018-10-07T11:23:27.633Z,37.10
2018-10-07T11:31:29.963Z,32.88
2018-10-07T11:35:11.334Z,37.30
2018-10-07T11:38:38.321Z,38.98
2018-10-07T11:42:02.666Z,41.88
2018-10-07T11:45:21.096Z,40.17
2018-10-07T11:49:45.296Z,41.73
2018-10-07T11:53:40.377Z,41.55
2018-10-07T11:56:52.004Z,30.20
2018-10-07T12:00:14.223Z,40.58
2018-10-07T12:03:26.451Z,44.83
2018-10-07T12:06:38.530Z,41.45
2018-10-07T12:09:50.587Z,40.58
2018-10-07T12:13:03.358Z,31.48
2018-10-07T12:16:15.744Z,37.70
2018-10-07T12:19:30.227Z,28.32
2018-10-07T12:22:43.273Z,32.55
2018-10-07T12:25:54.922Z,38.55
2018-10-07T12:29:07.472Z,40.45
2018-10-07T12:32:22.879Z,35.43
2018-10-07T12:35:36.416Z,33.90
2018-10-07T12:38:48.994Z,37.85
2018-10-07T12:42:02.789Z,31.10
2018-10-07T12:45:17.533Z,36.42
2018-10-07T12:48:30.175Z,30.32
2018-10-07T12:51:43.586Z,30.50
2018-10-07T12:54:57.083Z,32.58
2018-10-07T12:58:10.729Z,27.55
2018-10-07T13:01:24.612Z,27.22
2018-10-07T13:04:40.906Z,23.95
2018-10-07T13:07:53.279Z,21.85
2018-10-07T13:11:05.720Z,20.08
2018-10-07T13:14:17.236Z,22.60
2018-10-07T13:17:28.595Z,24.57
2018-10-07T13:20:40.569Z,17.40
2018-10-07T13:23:52.655Z,21.57
2018-10-07T13:27:03.998Z,23.15
2018-10-07T13:30:15.213Z,23.67
2018-10-07T13:33:27.241Z,21.42
2018-10-07T13:36:39.817Z,15.38
2018-10-07T13:39:51.213Z,15.72
2018-10-07T13:43:02.705Z,19.55
2018-10-07T13:46:14.879Z,14.60
2018-10-07T13:49:26.845Z,14.93
2018-10-07T13:52:38.043Z,16.42
2018-10-07T13:55:49.374Z,15.00
2018-10-07T13:59:01.056Z,15.45
2018-10-07T14:02:14.045Z,16.30
2018-10-07T14:05:25.854Z,11.57
2018-10-07T14:08:37.362Z,14.85
2018-10-07T14:11:49.312Z,16.15
2018-10-07T14:15:00.833Z,14.53
2018-10-07T14:18:12.919Z,16.07
2018-10-07T14:21:24.491Z,17.40
2018-10-07T14:24:36.250Z,17.80
2018-10-07T14:27:48.380Z,12.50
2018-10-07T14:31:01.155Z,14.98
2018-10-07T14:34:12.635Z,15.10
2018-10-07T14:37:24.681Z,13.88
2018-10-07T14:40:36.460Z,14.63
2018-10-07T14:43:47.828Z,12.80
2018-10-07T14:46:59.662Z,21.17
2018-10-07T14:50:11.620Z,16.30
2018-10-07T14:53:22.736Z,18.77
2018-10-07T14:56:34.938Z,17.92
2018-10-07T14:59:46.580Z,13.03
2018-10-07T15:02:58.521Z,15.10
2018-10-07T15:06:10.600Z,16.12
2018-10-07T15:09:22.465Z,13.03
2018-10-07T15:12:34.617Z,14.33
2018-10-07T15:15:46.334Z,15.13
2018-10-07T15:18:57.831Z,13.25
2018-10-07T15:22:09.494Z,14.90
2018-10-07T15:25:21.788Z,11.00
2018-10-07T15:28:33.505Z,9.68
2018-10-07T15:31:45.517Z,11.68
2018-10-07T15:34:57.357Z,11.53
2018-10-07T15:38:10.085Z,11.05
2018-10-07T15:41:22.026Z,9.53
2018-10-07T15:44:34.017Z,7.12
2018-10-07T15:47:45.175Z,10.78
2018-10-07T15:50:57.058Z,9.55
2018-10-07T15:54:08.094Z,7.97
2018-10-07T15:57:20.324Z,6.70
2018-10-07T16:00:32.313Z,10.35
2018-10-07T16:03:44.148Z,5.60
2018-10-07T16:06:56.086Z,5.10
2018-10-07T16:10:07.870Z,6.00
2018-10-07T16:13:20.078Z,7.50
2018-10-07T16:16:31.765Z,5.65
2018-10-07T16:19:43.354Z,6.28
2018-10-07T16:22:55.830Z,5.08
2018-10-07T16:26:07.071Z,5.83
2018-10-07T16:29:19.927Z,6.30
2018-10-07T16:32:32.971Z,6.30
2018-10-07T16:35:44.289Z,6.42
2018-10-07T16:38:55.397Z,8.05
2018-10-07T16:42:07.262Z,6.78
2018-10-07T16:45:18.807Z,5.72
2018-10-07T16:48:30.259Z,5.20
2018-10-07T16:51:42.409Z,6.62
2018-10-07T16:54:55.360Z,7.17
2018-10-07T16:58:07.985Z,5.85
2018-10-07T17:01:19.623Z,6.00
2018-10-07T17:04:31.164Z,7.72
2018-10-07T17:07:43.204Z,6.87
2018-10-07T17:10:55.739Z,7.10
2018-10-07T17:14:07.843Z,5.05
2018-10-07T17:17:19.493Z,4.97
2018-10-07T17:20:30.641Z,5.67
2018-10-07T17:23:41.882Z,5.45
2018-10-07T17:26:53.145Z,5.60
2018-10-07T17:30:04.583Z,5.87
2018-10-07T17:33:16.404Z,6.05
2018-10-07T17:36:27.992Z,5.92
2018-10-07T17:39:40.040Z,6.17
2018-10-07T17:42:51.105Z,5.58
2018-10-07T17:46:02.215Z,5.17
2018-10-07T17:49:42.935Z,5.55
2018-10-07T17:53:11.637Z,5.62
2018-10-07T17:57:00.634Z,5.83
2018-10-07T18:00:31.558Z,5.80
2018-10-07T18:03:46.260Z,5.50
2018-10-07T18:07:20.897Z,5.12
2018-10-07T18:10:34.208Z,5.28
2018-10-07T18:14:24.340Z,4.70
2018-10-07T18:17:37.335Z,4.65
2018-10-07T18:20:49.248Z,5.37
2018-10-07T18:24:00.510Z,5.87
2018-10-07T18:27:11.820Z,6.37
2018-10-07T18:30:22.951Z,4.87
2018-10-07T18:33:34.409Z,5.50
2018-10-07T18:36:45.737Z,6.05
2018-10-07T18:39:56.864Z,4.10
2018-10-07T18:43:08.264Z,4.72
2018-10-07T18:46:20.284Z,4.80
2018-10-07T18:49:31.798Z,5.08
2018-10-07T18:52:43.931Z,4.40
2018-10-07T18:55:55.749Z,4.75
2018-10-07T18:59:06.951Z,6.95
2018-10-07T19:02:18.503Z,3.90
2018-10-07T19:05:30.386Z,5.22
2018-10-07T19:08:42.376Z,5.80
2018-10-07T19:11:53.977Z,4.90
2018-10-07T19:15:20.273Z,5.28
2018-10-07T19:18:32.307Z,4.92
2018-10-07T19:21:44.442Z,5.20
2018-10-07T19:24:55.506Z,4.50
2018-10-07T19:28:07.906Z,5.80
2018-10-07T19:31:21.694Z,6.50
2018-10-07T19:34:33.215Z,4.53
2018-10-07T19:37:45.799Z,5.17
2018-10-07T19:40:57.360Z,4.85
2018-10-07T19:44:08.780Z,6.30
2018-10-07T19:47:25.978Z,5.45
2018-10-07T19:50:39.606Z,6.50
2018-10-07T19:53:51.425Z,4.45
2018-10-07T19:57:03.317Z,4.53
2018-10-07T20:00:15.034Z,4.47
2018-10-07T20:03:26.209Z,8.03
2018-10-07T20:06:37.993Z,5.62
2018-10-07T20:09:49.916Z,7.10
2018-10-07T20:13:02.091Z,5.53
2018-10-07T20:16:13.977Z,6.62
2018-10-07T20:19:26.076Z,5.58
2018-10-07T20:22:39.275Z,5.15
2018-10-07T20:25:50.643Z,4.90
2018-10-07T20:29:02.610Z,4.50
2018-10-07T20:32:13.832Z,4.97
2018-10-07T20:35:25.674Z,4.28
2018-10-07T20:38:37.689Z,5.35
2018-10-07T20:41:48.778Z,3.80
2018-10-07T20:45:00.075Z,4.08
2018-10-07T20:48:11.990Z,4.05
2018-10-07T20:51:23.070Z,3.42
2018-10-07T20:54:34.354Z,4.30
2018-10-07T20:57:45.995Z,6.05
2018-10-07T21:00:57.143Z,5.00
2018-10-07T21:04:09.038Z,3.92
2018-10-07T21:07:20.287Z,3.35
2018-10-07T21:10:31.343Z,4.37
2018-10-07T21:13:43.006Z,3.42
2018-10-07T21:16:54.348Z,3.92
2018-10-07T21:20:06.376Z,3.65
2018-10-07T21:23:18.664Z,3.50
2018-10-07T21:26:30.131Z,5.17
2018-10-07T21:29:41.452Z,4.65
2018-10-07T21:32:53.441Z,4.40
2018-10-07T21:36:04.508Z,4.75
2018-10-07T21:39:15.579Z,4.53
2018-10-07T21:42:26.690Z,3.77
2018-10-07T21:45:37.824Z,3.87
2018-10-07T21:48:48.966Z,6.10
2018-10-07T21:52:00.933Z,4.08
2018-10-07T21:55:12.049Z,4.28
2018-10-07T21:58:23.169Z,3.67
2018-10-07T22:01:35.186Z,4.20
2018-10-07T22:04:46.529Z,4.30
2018-10-07T22:07:58.258Z,3.72
2018-10-07T22:11:09.691Z,4.33
2018-10-07T22:14:21.401Z,3.42
2018-10-07T22:17:33.225Z,5.12
2018-10-07T22:20:44.575Z,4.62
2018-10-07T22:23:56.535Z,4.15
2018-10-07T22:27:08.089Z,4.17
2018-10-07T22:30:19.455Z,3.85
2018-10-07T22:33:31.621Z,4.67
2018-10-07T22:36:42.815Z,4.55
2018-10-07T22:39:54.061Z,4.53
2018-10-07T22:43:06.041Z,4.03
2018-10-07T22:46:17.902Z,3.80
2018-10-07T22:49:29.098Z,4.50
2018-10-07T22:52:40.720Z,4.15
2018-10-07T22:55:51.938Z,3.17
2018-10-07T22:59:03.152Z,4.22
2018-10-07T23:02:14.270Z,3.10
2018-10-07T23:05:25.452Z,3.65
2018-10-07T23:08:37.502Z,4.78
2018-10-07T23:11:48.986Z,3.90
2018-10-07T23:15:00.521Z,3.40
2018-10-07T23:18:11.681Z,4.10
2018-10-07T23:21:23.123Z,4.62
2018-10-07T23:24:35.073Z,3.83
2018-10-07T23:27:46.857Z,3.40
2018-10-07T23:30:58.245Z,3.67
2018-10-07T23:34:10.299Z,3.92
2018-10-07T23:37:21.647Z,3.70
2018-10-07T23:40:32.923Z,3.12
2018-10-07T23:43:44.070Z,3.35
2018-10-07T23:46:55.996Z,3.45
2018-10-07T23:50:07.869Z,5.58
2018-10-07T23:53:19.074Z,3.70
2018-10-07T23:56:30.137Z,3.62
2018-10-07T23:59:41.913Z,3.87
